Terminal Aerodrome Forecast
Issued by NWS Tampa Bay Area, FL

Home | Current Version | Previous Version | Text Only | Print | Product List | Glossary On
Versions: 1 2 3 4 5 6 7 8 9 10 11 12 13 14 15 16 17 18 19
000
FTUS42 KTBW 011720
TAFFMY
TAF
KFMY 011720Z 0118/0218 09007KT P6SM SCT035 SCT250
     FM012100 08006KT P6SM VCTS SCT045CB BKN250
     FM020000 07005KT P6SM FEW040 SCT100 BKN250
     FM020600 VRB03KT P6SM FEW100 BKN250
     FM021500 08007KT P6SM FEW030 SCT120 BKN250=

USA.gov is the U.S. government's official web portal to all federal, state and local government web resources and services.